.
WxDataArchive / Data Records for 2008-09-01
2008-08-31 September 2008 2008-09-02

Data Records for Monday, 01 September 2008

Time	Temp	Chill	HIndex	Humid	Dewpt	 Wind 	HiWind	WindDir	Rain 	Barom 
-----	----	-----	------	-----	-----	------	------	-------	-----	----- 
00:00	63.5	63.5	63.5	65	51.5	0	0	---	0.00	30.107 
00:05	63.2	63.2	63.2	65	51.2	0	0	---	0.00	30.107 
00:10	62.9	62.9	62.9	66	51.4	0	0	---	0.00	30.107 
00:15	62.6	62.6	62.6	67	51.5	0	0	---	0.00	30.105 
00:20	62.4	62.4	62.4	68	51.7	0	0	---	0.00	30.105 
00:25	62.3	62.3	62.3	69	52.0	0	0	---	0.00	30.105 
00:30	62.1	62.1	62.1	69	51.8	0	0	---	0.00	30.108 
00:35	62.1	62.1	62.1	69	51.8	0	1	135	0.00	30.108 
00:40	62.3	62.3	62.3	69	52.0	0	1	---	0.00	30.108 
00:45	62.4	62.4	62.4	69	52.1	0	1	135	0.00	30.106 
00:50	62.4	62.4	62.4	69	52.1	0	0	---	0.00	30.106 
00:55	62.4	62.4	62.4	69	52.1	0	0	---	0.00	30.106 
01:00	62.3	62.3	62.3	69	52.0	0	0	---	0.00	30.105 
01:05	62.0	62.0	62.0	70	52.1	0	0	---	0.00	30.105 
01:10	61.8	61.8	61.8	70	51.9	0	0	---	0.00	30.105 
01:15	61.5	61.5	61.5	71	52.0	0	0	---	0.00	30.105 
01:20	61.3	61.3	61.3	72	52.2	0	0	---	0.00	30.105 
01:25	61.0	61.0	61.0	72	51.9	0	0	---	0.00	30.105 
01:30	60.9	60.9	60.9	73	52.2	0	0	---	0.00	30.102 
01:35	60.7	60.7	60.7	74	52.4	0	0	---	0.00	30.102 
01:40	60.4	60.4	60.4	74	52.1	0	0	---	0.00	30.102 
01:45	60.2	60.2	60.2	75	52.2	0	0	---	0.00	30.099 
01:50	59.9	59.9	59.9	76	52.3	0	0	---	0.00	30.099 
01:55	59.8	59.8	59.8	77	52.6	0	0	---	0.00	30.099 
02:00	59.6	59.6	59.6	77	52.4	0	0	---	0.00	30.098 
02:05	59.5	59.5	59.5	78	52.6	0	0	---	0.00	30.098 
02:10	59.2	59.2	59.2	79	52.7	0	0	---	0.00	30.098 
02:15	59.0	59.0	59.0	80	52.8	0	0	---	0.00	30.102 
02:20	58.9	58.9	58.9	81	53.1	0	0	---	0.00	30.102 
02:25	58.7	58.7	58.7	81	52.9	0	0	---	0.00	30.102 
02:30	58.4	58.4	58.4	82	52.9	0	0	---	0.00	30.103 
02:35	58.3	58.3	58.3	83	53.2	0	0	---	0.00	30.103 
02:40	58.1	58.1	58.1	83	53.0	0	0	---	0.00	30.103 
02:45	58.0	58.0	58.0	84	53.2	0	0	---	0.00	30.096 
02:50	58.0	58.0	58.0	84	53.2	0	0	---	0.00	30.096 
02:55	58.0	58.0	58.0	85	53.5	0	0	---	0.00	30.096 
03:00	58.0	58.0	58.0	85	53.5	0	0	---	0.00	30.102 
03:05	58.0	58.0	58.0	85	53.5	0	0	---	0.00	30.102 
03:10	58.0	58.0	58.0	85	53.5	0	0	---	0.00	30.102 
03:15	58.0	58.0	58.0	85	53.5	0	0	---	0.00	30.103 
03:20	58.0	58.0	58.0	85	53.5	0	0	---	0.00	30.103 
03:25	58.0	58.0	58.0	85	53.5	0	0	---	0.00	30.103 
03:30	58.0	58.0	58.0	85	53.5	0	0	---	0.00	30.104 
03:35	57.8	57.8	57.8	86	53.6	0	0	---	0.00	30.104 
03:40	57.6	57.6	57.6	86	53.4	0	0	---	0.00	30.104 
03:45	57.5	57.5	57.5	86	53.3	0	0	---	0.00	30.102 
03:50	57.5	57.5	57.5	86	53.3	0	0	---	0.00	30.102 
03:55	57.3	57.3	57.3	87	53.5	0	0	---	0.00	30.102 
04:00	57.2	57.2	57.2	87	53.4	0	0	---	0.00	30.105 
04:05	57.0	57.0	57.0	88	53.5	0	0	---	0.00	30.105 
04:10	57.0	57.0	57.0	88	53.5	0	0	---	0.00	30.105 
04:15	56.9	56.9	56.9	88	53.4	0	0	---	0.00	30.105 
04:20	56.7	56.7	56.7	88	53.2	0	0	---	0.00	30.105 
04:25	56.7	56.7	56.7	88	53.2	0	0	---	0.00	30.105 
04:30	56.6	56.6	56.6	89	53.4	0	0	---	0.00	30.107 
04:35	56.5	56.5	56.5	89	53.3	0	0	---	0.00	30.107 
04:40	56.5	56.5	56.5	89	53.3	0	0	---	0.00	30.107 
04:45	56.3	56.3	56.3	89	53.1	0	0	---	0.00	30.101 
04:50	56.2	56.2	56.2	90	53.3	0	0	---	0.00	30.101 
04:55	56.2	56.2	56.2	90	53.3	0	0	---	0.00	30.101 
05:00	56.0	56.0	56.0	90	53.1	0	0	---	0.00	30.105 
05:05	55.9	55.9	55.9	90	53.0	0	0	---	0.00	30.105 
05:10	55.9	55.9	55.9	90	53.0	0	0	---	0.00	30.105 
05:15	55.7	55.7	55.7	91	53.1	0	0	---	0.00	30.106 
05:20	55.6	55.6	55.6	91	53.0	0	0	---	0.00	30.106 
05:25	55.6	55.6	55.6	91	53.0	0	0	---	0.00	30.106 
05:30	55.6	55.6	55.6	92	53.3	0	0	---	0.00	30.109 
05:35	55.4	55.4	55.4	92	53.1	0	0	---	0.00	30.109 
05:40	55.3	55.3	55.3	92	53.0	0	0	---	0.00	30.109 
05:45	55.1	55.1	55.1	92	52.8	0	0	---	0.00	30.112 
05:50	55.1	55.1	55.1	92	52.8	0	0	---	0.00	30.112 
05:55	55.1	55.1	55.1	93	53.1	0	0	---	0.00	30.112 
06:00	55.1	55.1	55.1	93	53.1	0	0	---	0.00	30.112 
06:05	55.1	55.1	55.1	93	53.1	0	0	---	0.00	30.112 
06:10	55.0	55.0	55.0	93	53.0	0	0	---	0.00	30.112 
06:15	54.8	54.8	54.8	93	52.8	0	0	---	0.00	30.116 
06:20	54.7	54.7	54.7	93	52.7	0	0	---	0.00	30.116 
06:25	54.5	54.5	54.5	93	52.5	0	0	---	0.00	30.116 
06:30	54.7	54.7	54.7	94	53.0	0	0	---	0.00	30.118 
06:35	54.8	54.8	54.8	94	53.1	0	0	---	0.00	30.118 
06:40	55.1	55.1	55.1	94	53.4	0	0	---	0.00	30.118 
06:45	55.1	55.1	55.1	94	53.4	0	0	---	0.00	30.129 
06:50	55.3	55.3	55.3	94	53.6	0	0	---	0.00	30.129 
06:55	55.6	55.6	55.6	95	54.2	0	0	---	0.00	30.129 
07:00	56.0	56.0	56.0	95	54.6	0	0	---	0.00	30.131 
07:05	56.6	56.6	56.6	95	55.2	0	0	---	0.00	30.131 
07:10	57.2	57.2	57.2	95	55.8	0	0	---	0.00	30.131 
07:15	58.0	58.0	58.0	95	56.6	0	0	---	0.00	30.134 
07:20	58.7	58.7	58.7	95	57.3	0	1	135	0.00	30.134 
07:25	60.1	60.1	60.1	92	57.8	0	2	135	0.00	30.134 
07:30	61.0	61.0	61.0	85	56.5	1	3	135	0.00	30.132 
07:35	61.8	61.8	61.8	81	55.9	1	4	112	0.00	30.132 
07:40	62.4	62.4	62.4	79	55.8	0	2	112	0.00	30.132 
07:45	63.1	63.1	63.1	78	56.1	1	2	112	0.00	30.132 
07:50	63.5	63.5	63.5	77	56.2	0	1	112	0.00	30.132 
07:55	64.0	64.0	64.0	76	56.3	1	2	112	0.00	30.132 
08:00	64.3	64.3	64.3	74	55.8	1	3	112	0.00	30.132 
08:05	64.8	64.8	64.8	73	55.9	0	2	112	0.00	30.132 
08:10	65.2	65.2	65.2	72	55.9	1	3	112	0.00	30.132 
08:15	65.5	65.5	65.5	71	55.8	1	3	112	0.00	30.137 
08:20	65.8	65.8	65.8	70	55.7	1	3	112	0.00	30.137 
08:25	66.4	66.4	66.4	69	55.9	1	3	112	0.00	30.137 
08:30	66.8	66.8	66.8	69	56.3	0	1	112	0.00	30.141 
08:35	67.3	67.3	67.3	66	55.5	0	3	112	0.00	30.141 
08:40	67.9	67.9	67.9	65	55.7	0	2	112	0.00	30.141 
08:45	68.4	68.4	68.4	63	55.3	1	3	112	0.00	30.139 
08:50	68.9	68.9	68.9	63	55.8	1	3	112	0.00	30.139 
08:55	69.4	69.4	69.4	62	55.8	1	3	90	0.00	30.139 
09:00	69.8	69.8	69.8	58	54.3	1	3	90	0.00	30.143 
09:05	70.6	70.6	70.6	60	56.0	1	3	90	0.00	30.143 
09:10	71.6	71.6	71.6	56	55.1	1	4	90	0.00	30.143 
09:15	72.7	72.7	72.7	55	55.6	1	4	90	0.00	30.139 
09:20	73.3	73.3	73.3	54	55.6	2	4	90	0.00	30.139 
09:25	74.2	74.2	74.2	53	56.0	1	4	90	0.00	30.139 
09:30	74.7	74.7	74.7	52	55.9	1	4	90	0.00	30.135 
09:35	75.4	75.4	77.8	49	54.9	1	4	90	0.00	30.135 
09:40	76.1	76.1	78.1	49	55.5	1	5	90	0.00	30.135 
09:45	76.8	76.8	78.5	49	56.2	1	3	90	0.00	30.138 
09:50	77.4	77.4	78.7	47	55.6	1	4	90	0.00	30.138 
09:55	77.7	77.7	78.7	43	53.4	2	5	90	0.00	30.138 
10:00	78.1	78.1	78.9	43	53.8	2	4	68	0.00	30.135 
10:05	78.6	78.6	79.2	43	54.2	1	4	90	0.00	30.135 
10:10	79.6	79.6	79.7	40	53.1	2	5	90	0.00	30.135 
10:15	79.8	79.8	79.8	40	53.3	1	5	90	0.00	30.133 
10:20	80.3	80.3	79.9	37	51.6	2	5	90	0.00	30.133 
10:25	80.9	80.9	80.4	38	52.9	1	3	90	0.00	30.133 
10:30	81.4	81.4	80.8	38	53.3	2	6	90	0.00	30.131 
10:35	81.6	81.6	80.7	36	52.0	2	5	90	0.00	30.131 
10:40	81.8	81.8	80.8	35	51.4	1	4	90	0.00	30.131 
10:45	82.6	82.6	81.2	33	50.6	2	5	112	0.00	30.123 
10:50	83.4	83.4	81.8	33	51.2	2	5	112	0.00	30.123 
10:55	83.4	83.4	81.9	34	52.1	2	5	90	0.00	30.123 
11:00	83.6	83.6	81.9	32	50.6	2	9	90	0.00	30.119 
11:05	83.8	83.8	81.8	30	49.0	2	6	90	0.00	30.119 
11:10	83.8	83.8	81.9	31	49.9	3	5	90	0.00	30.119 
11:15	84.1	84.1	81.8	27	46.5	2	5	90	0.00	30.116 
11:20	84.5	84.5	82.2	28	47.8	2	5	90	0.00	30.116 
11:25	84.7	84.7	82.4	28	48.0	3	7	90	0.00	30.116 
11:30	85.1	85.1	82.7	28	48.3	2	7	90	0.00	30.108 
11:35	85.3	85.3	82.7	26	46.5	2	6	112	0.00	30.108 
11:40	85.5	85.5	82.9	26	46.7	3	12	112	0.00	30.108 
11:45	84.9	84.9	82.5	27	47.2	3	11	90	0.00	30.105 
11:50	84.9	84.9	82.6	28	48.1	3	7	90	0.00	30.105 
11:55	85.3	85.3	82.7	26	46.5	3	7	112	0.00	30.105 
12:00	85.7	85.7	83.1	27	47.8	2	6	90	0.00	30.100 
12:05	85.9	85.9	83.2	26	47.0	3	7	112	0.00	30.102 
12:10	86.1	86.1	83.4	26	47.2	2	7	90	0.00	30.095 
12:15	86.3	86.3	83.7	27	48.3	3	9	90	0.00	30.094 
12:20	86.5	86.5	83.7	26	47.5	2	7	68	0.00	30.093 
12:25	86.1	86.1	83.4	26	47.2	3	7	90	0.00	30.092 
12:30	86.1	86.1	83.3	25	46.1	3	7	90	0.00	30.092 
12:35	86.1	86.1	83.3	25	46.1	2	7	112	0.00	30.092 
12:40	86.3	86.3	83.5	25	46.3	3	9	90	0.00	30.091 
12:45	86.7	86.7	83.6	23	44.4	2	7	112	0.00	30.091 
12:50	86.7	86.7	83.6	23	44.4	3	8	112	0.00	30.088 
12:55	87.0	87.0	83.9	23	44.7	3	10	90	0.00	30.087 
13:00	87.0	87.0	83.9	23	44.7	3	12	90	0.00	30.082 
13:05	87.0	87.0	84.0	24	45.8	2	5	68	0.00	30.085 
13:10	87.4	87.4	84.4	25	47.2	2	7	112	0.00	30.083 
13:15	87.6	87.6	84.5	24	46.3	3	6	90	0.00	30.080 
13:20	88.0	88.0	84.9	24	46.6	2	5	90	0.00	30.079 
13:25	88.2	88.2	85.0	23	45.7	3	7	90	0.00	30.078 
13:30	88.2	88.2	84.9	22	44.5	2	6	112	0.00	30.077 
13:35	88.2	88.2	84.8	21	43.3	3	9	90	0.00	30.076 
13:40	88.0	88.0	84.7	22	44.4	3	9	90	0.00	30.075 
13:45	88.4	88.4	85.0	21	43.5	2	6	112	0.00	30.074 
13:50	88.6	88.6	85.1	21	43.6	2	5	90	0.00	30.072 
13:55	89.0	89.0	85.4	20	42.7	2	6	90	0.00	30.073 
14:00	89.3	89.3	85.9	22	45.4	2	5	112	0.00	30.070 
14:05	89.5	89.5	86.1	22	45.6	2	6	90	0.00	30.067 
14:10	89.7	89.7	86.2	21	44.5	2	7	112	0.00	30.064 
14:15	89.3	89.3	85.7	20	42.9	3	7	90	0.00	30.063 
14:20	88.8	88.8	85.3	21	43.8	3	7	90	0.00	30.062 
14:25	88.4	88.4	85.0	22	44.7	3	6	90	0.00	30.061 
14:30	88.8	88.8	85.4	22	45.0	2	5	90	0.00	30.058 
14:35	89.3	89.3	85.8	21	44.2	3	5	90	0.00	30.058 
14:40	89.3	89.3	85.7	20	42.9	3	9	90	0.00	30.056 
14:45	89.3	89.3	85.8	21	44.2	2	6	90	0.00	30.051 
14:50	89.5	89.5	85.9	20	43.1	2	6	68	0.00	30.050 
14:55	89.7	89.7	86.0	19	41.9	2	6	90	0.00	30.047 
15:00	89.7	89.7	86.2	21	44.5	2	4	90	0.00	30.044 
15:05	89.9	89.9	86.3	21	44.7	2	7	90	0.00	30.046 
15:10	90.1	90.1	86.3	19	42.2	2	4	90	0.00	30.046 
15:15	90.3	90.3	86.6	20	43.7	1	5	90	0.00	30.044 
15:20	90.5	90.5	86.7	19	42.6	1	4	90	0.00	30.041 
15:25	90.5	90.5	86.7	19	42.6	2	6	90	0.00	30.040 
15:30	90.3	90.3	86.5	19	42.4	2	4	90	0.00	30.038 
15:35	90.3	90.3	86.5	19	42.4	2	4	90	0.00	30.035 
15:40	90.1	90.1	86.4	20	43.6	2	5	90	0.00	30.033 
15:45	90.1	90.1	86.3	19	42.2	2	6	112	0.00	30.036 
15:50	90.1	90.1	86.2	18	40.8	2	6	112	0.00	30.036 
15:55	89.9	89.9	86.1	19	42.1	2	4	68	0.00	30.034 
16:00	89.9	89.9	86.1	19	42.1	2	6	90	0.00	30.031 
16:05	89.9	89.9	86.2	20	43.4	2	5	112	0.00	30.032 
16:10	89.7	89.7	86.0	19	41.9	1	4	112	0.00	30.033 
16:15	89.5	89.5	85.9	20	43.1	2	5	112	0.00	30.032 
16:20	89.3	89.3	85.7	20	42.9	1	4	112	0.00	30.032 
16:25	89.3	89.3	85.6	19	41.6	2	5	112	0.00	30.032 
16:30	89.0	89.0	85.3	19	41.4	3	5	90	0.00	30.032 
16:35	88.8	88.8	85.1	19	41.2	3	6	90	0.00	30.032 
16:40	88.6	88.6	85.0	19	41.0	3	6	68	0.00	30.031 
16:45	88.4	88.4	84.9	20	42.2	1	3	68	0.00	30.031 
16:50	88.4	88.4	84.8	19	40.9	1	5	90	0.00	30.031 
16:55	88.4	88.4	84.8	19	40.9	1	3	135	0.00	30.031 
17:00	88.4	88.4	84.7	18	39.5	2	5	112	0.00	30.032 
17:05	88.4	88.4	84.8	19	40.9	1	3	112	0.00	30.033 
17:10	88.2	88.2	84.6	19	40.7	1	3	112	0.00	30.033 
17:15	88.0	88.0	84.5	20	41.9	1	4	90	0.00	30.034 
17:20	87.8	87.8	84.3	20	41.7	1	3	180	0.00	30.033 
17:25	87.6	87.6	84.2	20	41.5	1	3	112	0.00	30.033 
17:30	87.4	87.4	84.0	20	41.4	0	2	158	0.00	30.033 
17:35	87.2	87.2	84.0	22	43.7	1	3	135	0.00	30.033 
17:40	87.2	87.2	84.0	22	43.7	1	4	90	0.00	30.034 
17:45	87.0	87.0	83.8	22	43.5	1	2	112	0.00	30.033 
17:50	86.7	86.7	83.5	22	43.3	0	2	112	0.00	30.033 
17:55	86.5	86.5	83.4	22	43.1	0	3	112	0.00	30.033 
18:00	86.3	86.3	83.2	22	42.9	0	2	112	0.00	30.034 
18:05	86.1	86.1	83.0	22	42.8	0	2	112	0.00	30.033 
18:10	85.9	85.9	83.0	24	44.9	0	1	112	0.00	30.033 
18:15	85.5	85.5	82.7	24	44.6	0	1	112	0.00	30.033 
18:20	85.3	85.3	82.5	24	44.4	0	1	112	0.00	30.034 
18:25	84.9	84.9	82.2	24	44.1	0	1	112	0.00	30.032 
18:30	84.7	84.7	82.0	24	43.9	0	1	112	0.00	30.030 
18:35	84.3	84.3	81.9	26	45.7	0	1	112	0.00	30.030 
18:40	84.1	84.1	81.7	26	45.5	0	0	---	0.00	30.028 
18:45	83.6	83.6	81.3	26	45.1	0	0	---	0.00	30.026 
18:50	83.0	83.0	81.0	27	45.5	0	0	---	0.00	30.024 
18:55	82.2	82.2	80.5	28	45.8	0	0	---	0.00	30.023 
19:00	81.4	81.4	79.9	28	45.1	0	0	---	0.00	30.025 
19:05	80.7	80.7	79.5	28	44.5	0	0	---	0.00	30.020 
19:10	79.9	79.9	79.1	30	45.7	0	0	---	0.00	30.021 
19:15	79.2	79.2	78.8	31	45.9	0	0	---	0.00	30.021 
19:20	78.5	78.5	78.5	32	46.2	0	0	---	0.00	30.022 
19:25	77.7	77.7	78.3	35	47.8	0	0	---	0.00	30.023 
19:30	77.0	77.0	78.0	36	48.0	0	0	---	0.00	30.025 
19:35	76.3	76.3	77.7	36	47.4	0	0	---	0.00	30.026 
19:40	75.4	75.4	77.6	39	48.7	0	0	---	0.00	30.032 
19:45	75.4	75.4	77.6	41	50.0	1	3	112	0.00	30.036 
19:50	76.1	76.1	77.9	42	51.3	1	4	112	0.00	30.036 
19:55	76.3	76.3	78.1	44	52.8	0	2	90	0.00	30.040 
20:00	76.3	76.3	78.1	46	54.0	0	2	90	0.00	30.043 
20:05	76.0	76.0	78.0	48	54.9	1	3	90	0.00	30.040 
20:10	75.6	75.6	77.9	50	55.6	1	4	90	0.00	30.041 
20:15	75.4	75.4	77.8	51	56.0	0	3	90	0.00	30.042 
20:20	75.1	75.1	77.6	52	56.3	1	5	90	0.00	30.043 
20:25	74.7	74.7	74.7	53	56.4	2	6	90	0.00	30.045 
20:30	74.7	74.7	74.7	54	56.9	1	5	112	0.00	30.046 
20:35	74.6	74.6	74.6	54	56.8	1	5	90	0.00	30.048 
20:40	74.2	74.2	74.2	55	57.0	1	2	90	0.00	30.047 
20:45	73.9	73.9	73.9	56	57.2	1	4	112	0.00	30.049 
20:50	73.7	73.7	73.7	56	57.0	2	5	68	0.00	30.049 
20:55	73.3	73.3	73.3	57	57.1	1	4	90	0.00	30.050 
21:00	73.0	73.0	73.0	58	57.3	1	2	90	0.00	30.051 
21:05	72.7	72.7	72.7	59	57.5	2	5	90	0.00	30.042 
21:10	72.3	72.3	72.3	59	57.2	1	3	90	0.00	30.041 
21:15	72.1	72.1	72.1	57	56.0	1	3	90	0.00	30.041 
21:20	72.0	72.0	72.0	60	57.3	1	3	90	0.00	30.043 
21:25	71.6	71.6	71.6	61	57.4	0	2	90	0.00	30.043 
21:30	71.3	71.3	71.3	61	57.1	1	2	90	0.00	30.042 
21:35	71.1	71.1	71.1	62	57.4	1	2	90	0.00	30.043 
21:40	70.9	70.9	70.9	62	57.2	1	2	90	0.00	30.043 
21:45	70.8	70.8	70.8	62	57.1	1	3	90	0.00	30.042 
21:50	70.6	70.6	70.6	62	56.9	1	3	112	0.00	30.043 
21:55	70.4	70.4	70.4	62	56.7	0	2	112	0.00	30.043 
22:00	70.3	70.3	70.3	62	56.7	0	2	112	0.00	30.044 
22:05	70.1	70.1	70.1	63	56.9	0	2	112	0.00	30.039 
22:10	69.9	69.9	69.9	63	56.7	0	1	112	0.00	30.039 
22:15	69.8	69.8	69.8	63	56.6	0	1	112	0.00	30.040 
22:20	69.4	69.4	69.4	64	56.7	0	2	112	0.00	30.040 
22:25	69.3	69.3	69.3	64	56.6	0	2	112	0.00	30.040 
22:30	69.1	69.1	69.1	64	56.4	0	1	112	0.00	30.039 
22:35	68.9	68.9	68.9	65	56.6	0	2	112	0.00	30.038 
22:40	68.8	68.8	68.8	65	56.5	0	2	112	0.00	30.038 
22:45	68.6	68.6	68.6	65	56.4	0	2	112	0.00	30.039 
22:50	68.4	68.4	68.4	65	56.2	0	3	112	0.00	30.039 
22:55	68.3	68.3	68.3	66	56.5	1	2	112	0.00	30.038 
23:00	68.1	68.1	68.1	66	56.3	0	2	112	0.00	30.033 
23:05	67.9	67.9	67.9	66	56.1	0	1	112	0.00	30.031 
23:10	67.6	67.6	67.6	67	56.2	0	1	112	0.00	30.034 
23:15	67.4	67.4	67.4	67	56.1	0	1	112	0.00	30.036 
23:20	67.3	67.3	67.3	68	56.4	0	1	112	0.00	30.035 
23:25	67.1	67.1	67.1	68	56.2	0	1	112	0.00	30.032 
23:30	66.9	66.9	66.9	69	56.4	0	1	112	0.00	30.033 
23:35	66.8	66.8	66.8	69	56.3	0	1	112	0.00	30.036 
23:40	66.6	66.6	66.6	69	56.1	0	0	---	0.00	30.036 
23:45	66.4	66.4	66.4	70	56.3	0	1	112	0.00	30.035 
23:50	66.1	66.1	66.1	71	56.4	0	1	112	0.00	30.036 
23:55	66.0	66.0	66.0	72	56.7	0	1	112	0.00	30.033 

CoCoRaHS
IN-AL-39
A2 Web Hosting
Creative Commons License
GoDaddy
Look for:

loaded 2017-10-19 19:49:30 • last modified 2010-11-18 10:43:29
Privacy PolicyDisclaimer
• wx.awcolley.com is powered by PmWiki v.2002016 •
• all content (unless otherwise noted) © 2017 A W Colley